TimeBST,TemperatureF,Dew PointF,Humidity,Sea Level PressureIn,VisibilityMPH,Wind Direction,Wind SpeedMPH,Gust SpeedMPH,PrecipitationIn,Events,Conditions,WindDirDegrees,DateUTC
12:20 AM,57.2,53.6,88,30.09,6.2,SW,13.8,-,N/A,,Overcast,230,2013-06-29 23:20:00
12:50 AM,57.2,53.6,88,30.09,6.2,WSW,13.8,-,N/A,,Overcast,250,2013-06-29 23:50:00
1:20 AM,57.2,53.6,88,30.09,6.2,WSW,12.7,-,N/A,,Overcast,250,2013-06-30 00:20:00
1:50 AM,57.2,51.8,82,30.06,6.2,WSW,11.5,-,N/A,,Overcast,240,2013-06-30 00:50:00
2:20 AM,57.2,51.8,82,30.06,6.2,WSW,11.5,-,N/A,,Mostly Cloudy,240,2013-06-30 01:20:00
2:50 AM,57.2,50.0,77,30.06,6.2,WSW,11.5,-,N/A,,Mostly Cloudy,240,2013-06-30 01:50:00
3:20 AM,57.2,50.0,77,30.04,6.2,WSW,15.0,-,N/A,,Mostly Cloudy,240,2013-06-30 02:20:00
3:50 AM,57.2,50.0,77,30.04,6.2,WSW,15.0,-,N/A,,Mostly Cloudy,240,2013-06-30 02:50:00
4:20 AM,57.2,50.0,77,30.01,6.2,WSW,15.0,-,N/A,,Mostly Cloudy,250,2013-06-30 03:20:00
4:50 AM,57.2,50.0,77,30.01,6.2,WSW,12.7,-,N/A,,Mostly Cloudy,250,2013-06-30 03:50:00
5:20 AM,57.2,50.0,77,30.01,6.2,WSW,15.0,-,N/A,,Mostly Cloudy,240,2013-06-30 04:20:00
5:50 AM,57.2,50.0,77,30.01,6.2,WSW,12.7,-,N/A,,Overcast,250,2013-06-30 04:50:00
6:20 AM,59.0,51.8,77,29.98,6.2,West,10.4,-,N/A,,Overcast,260,2013-06-30 05:20:00
6:50 AM,59.0,51.8,77,29.98,6.2,WSW,11.5,-,N/A,,Overcast,240,2013-06-30 05:50:00
7:20 AM,59.0,51.8,77,29.98,6.2,WSW,13.8,-,N/A,,Mostly Cloudy,250,2013-06-30 06:20:00
7:50 AM,59.0,51.8,77,29.98,6.2,WSW,17.3,-,N/A,,Mostly Cloudy,250,2013-06-30 06:50:00
8:20 AM,60.8,51.8,72,29.98,6.2,WSW,20.7,34.5,N/A,,Mostly Cloudy,240,2013-06-30 07:20:00
8:50 AM,59.0,51.8,77,29.98,6.2,WSW,20.7,-,N/A,,Mostly Cloudy,240,2013-06-30 07:50:00
9:20 AM,60.8,51.8,72,29.95,6.2,WSW,21.9,-,N/A,,Mostly Cloudy,240,2013-06-30 08:20:00
9:50 AM,60.8,51.8,72,29.95,6.2,WSW,24.2,-,N/A,,Scattered Clouds,240,2013-06-30 08:50:00
10:20 AM,64.4,51.8,64,29.95,6.2,WSW,24.2,-,N/A,,Partly Cloudy,240,2013-06-30 09:20:00
10:50 AM,66.2,51.8,60,29.92,6.2,WSW,27.6,-,N/A,,Partly Cloudy,240,2013-06-30 09:50:00
11:20 AM,64.4,51.8,64,29.92,6.2,WSW,24.2,-,N/A,,Partly Cloudy,240,2013-06-30 10:20:00
11:50 AM,62.6,53.6,72,29.92,6.2,SW,24.2,-,N/A,Rain,Light Rain Showers,230,2013-06-30 10:50:00
12:20 PM,62.6,55.4,77,29.92,6.2,SW,23.0,-,N/A,,Mostly Cloudy,230,2013-06-30 11:20:00
12:50 PM,62.6,55.4,77,29.92,6.2,SW,21.9,-,N/A,,Mostly Cloudy,220,2013-06-30 11:50:00
1:20 PM,64.4,55.4,73,29.89,6.2,SW,24.2,-,N/A,,Mostly Cloudy,230,2013-06-30 12:20:00
1:50 PM,64.4,55.4,73,29.89,6.2,SW,25.3,-,N/A,,Mostly Cloudy,230,2013-06-30 12:50:00
2:20 PM,64.4,55.4,73,29.86,6.2,SW,25.3,-,N/A,,Mostly Cloudy,230,2013-06-30 13:20:00
2:50 PM,66.2,55.4,68,29.86,6.2,SW,23.0,-,N/A,,Mostly Cloudy,230,2013-06-30 13:50:00
3:20 PM,64.4,53.6,68,29.86,6.2,SW,26.5,-,N/A,,Mostly Cloudy,230,2013-06-30 14:20:00
3:50 PM,64.4,55.4,73,29.86,6.2,SW,23.0,34.5,N/A,,Mostly Cloudy,230,2013-06-30 14:50:00
4:20 PM,57.2,55.4,94,29.86,-9999.0,West,11.5,-,N/A,Rain,Light Rain,260,2013-06-30 15:20:00
4:50 PM,57.2,55.4,94,29.86,6.2,West,13.8,-,N/A,Rain,Light Rain,270,2013-06-30 15:50:00
5:20 PM,57.2,53.6,88,29.86,6.2,West,15.0,-,N/A,Rain,Light Rain,260,2013-06-30 16:20:00
5:50 PM,57.2,53.6,88,29.86,5.0,WSW,17.3,28.8,N/A,,Mostly Cloudy,250,2013-06-30 16:50:00
6:20 PM,57.2,51.8,82,29.86,6.2,WSW,20.7,32.2,N/A,,Mostly Cloudy,250,2013-06-30 17:20:00
6:50 PM,55.4,51.8,88,29.86,6.2,WSW,13.8,-,N/A,,Mostly Cloudy,240,2013-06-30 17:50:00
7:20 PM,55.4,50.0,82,29.86,6.2,WSW,15.0,-,N/A,,Overcast,240,2013-06-30 18:20:00
7:50 PM,55.4,48.2,77,29.86,6.2,WSW,15.0,-,N/A,,Mostly Cloudy,240,2013-06-30 18:50:00
8:20 PM,55.4,46.4,72,29.86,-9999.0,WSW,17.3,-,N/A,,Clear,250,2013-06-30 19:20:00
8:50 PM,53.6,46.4,77,29.86,6.2,WSW,17.3,-,N/A,,Mostly Cloudy,250,2013-06-30 19:50:00
9:20 PM,53.6,46.4,77,29.86,6.2,WSW,13.8,-,N/A,,Mostly Cloudy,250,2013-06-30 20:20:00
9:50 PM,53.6,46.4,77,29.86,6.2,WSW,15.0,-,N/A,,Partly Cloudy,250,2013-06-30 20:50:00
10:20 PM,51.8,46.4,82,29.86,-9999.0,WSW,16.1,-,N/A,,Clear,240,2013-06-30 21:20:00
10:50 PM,53.6,46.4,77,29.86,-9999.0,WSW,12.7,-,N/A,,Clear,240,2013-06-30 21:50:00
11:20 PM,53.6,46.4,77,29.86,6.2,WSW,15.0,-,N/A,,Mostly Cloudy,240,2013-06-30 22:20:00
11:50 PM,51.8,48.2,88,29.86,6.2,West,9.2,-,N/A,Rain,Light Rain,260,2013-06-30 22:50:00